Terminal Aerodrome Forecast
Issued by NWS

Home | Current Version | Previous Version | Text Only | Print | Product List | Glossary On
Versions: 1 2 3 4 5 6 7 8 9 10 11 12 13 14 15 16 17 18 19 20
195
FTUS43 KGRR 290234 AAA
TAFMKG
TAF AMD
KMKG 290234Z 2903/2924 04011KT P6SM OVC060
     FM291100 05012G20KT P6SM -RA OVC035
     FM291800 05011G19KT P6SM -RA OVC025=

USA.gov is the U.S. government's official web portal to all federal, state and local government web resources and services.